Time;durP1;ratioP1;P1;durP2;ratioP2;P2;SDS_P1;SDS_P2;PMS_P1;PMS_P2;Temp;Humidity;BMP_temperature;BMP_pressure;BME280_temperature;BME280_humidity;BME280_pressure;Samples;Min_cycle;Max_cycle;Signal;HPM_P1;HPM_P2
2023/04/13 00:02:12;;;;;;;1.93;1.83;;;7.00;99.90;;;7.84;100.00;96791.19;5241683;28;20291;-65
2023/04/13 00:04:45;;;;;;;1.87;1.77;;;7.10;99.90;;;7.74;100.00;96801.72;5240646;28;20755;-65
2023/04/13 00:07:18;;;;;;;2.63;2.30;;;7.00;99.90;;;7.67;100.00;96803.94;5244385;28;20197;-64
2023/04/13 00:09:52;;;;;;;2.23;2.13;;;7.00;99.90;;;7.67;100.00;96811.59;5238081;28;20748;-64
2023/04/13 00:12:25;;;;;;;2.00;1.90;;;7.00;99.90;;;7.66;100.00;96812.34;5243083;28;20204;-65
2023/04/13 00:14:58;;;;;;;2.30;2.20;;;7.00;99.90;;;7.66;100.00;96806.41;5241535;28;20255;-65
2023/04/13 00:17:32;;;;;;;1.90;1.80;;;7.00;99.90;;;7.75;100.00;96804.31;5237277;28;20208;-65
2023/04/13 00:20:10;;;;;;;2.00;1.90;;;7.00;99.90;;;7.66;100.00;96807.25;5242606;28;20200;-66
2023/04/13 00:22:45;;;;;;;3.63;3.33;;;7.00;99.90;;;7.64;100.00;96813.97;5243143;28;20234;-66
2023/04/13 00:25:20;;;;;;;2.00;1.90;;;7.00;99.90;;;7.62;100.00;96823.19;5235836;28;20227;-66
2023/04/13 00:27:53;;;;;;;2.23;2.00;;;7.00;99.90;;;7.77;100.00;96817.13;5238080;28;20927;-64
2023/04/13 00:30:26;;;;;;;2.03;1.93;;;7.00;99.90;;;7.67;100.00;96814.13;5240318;28;20294;-67
2023/04/13 00:32:59;;;;;;;2.73;2.30;;;7.00;99.90;;;7.62;100.00;96818.09;5242624;28;20662;-65
2023/04/13 00:35:33;;;;;;;1.83;1.73;;;7.00;99.90;;;7.58;100.00;96823.81;5236772;28;20247;-66
2023/04/13 00:38:06;;;;;;;1.93;1.83;;;6.90;99.90;;;7.63;100.00;96827.47;5243066;28;20205;-66
2023/04/13 00:40:41;;;;;;;2.20;2.10;;;6.90;99.90;;;7.58;100.00;96813.66;5241178;28;20197;-66
2023/04/13 00:43:14;;;;;;;2.40;2.20;;;6.90;99.90;;;7.42;100.00;96808.56;5240315;28;20207;-66
2023/04/13 00:45:48;;;;;;;1.97;1.87;;;6.80;99.90;;;7.40;100.00;96810.16;5241401;28;20322;-65
2023/04/13 00:48:22;;;;;;;1.73;1.70;;;6.80;99.90;;;7.58;100.00;96823.81;5235083;28;20247;-65
2023/04/13 00:50:55;;;;;;;1.97;1.87;;;6.80;99.90;;;7.53;100.00;96829.47;5240566;28;20204;-66
2023/04/13 00:53:28;;;;;;;2.40;2.27;;;6.80;99.90;;;7.44;100.00;96837.50;5236402;28;20299;-66
2023/04/13 00:56:04;;;;;;;2.13;2.03;;;6.80;99.90;;;7.41;100.00;96850.00;5242780;28;20307;-67
2023/04/13 00:58:38;;;;;;;2.40;2.30;;;6.80;99.90;;;7.34;100.00;96842.88;5240873;28;20242;-65
2023/04/13 01:01:11;;;;;;;1.73;1.70;;;6.70;99.90;;;7.36;100.00;96843.84;5239417;28;20235;-65
2023/04/13 01:03:44;;;;;;;1.73;1.63;;;6.70;99.90;;;7.33;100.00;96843.69;5235351;28;20738;-66
2023/04/13 01:06:25;;;;;;;2.20;2.10;;;6.60;99.90;;;7.27;100.00;96845.88;5236263;28;20221;-66
2023/04/13 01:09:11;;;;;;;2.03;1.93;;;6.60;99.90;;;7.23;100.00;96850.78;5247793;28;20571;-66
2023/04/13 01:11:52;;;;;;;1.90;1.80;;;6.60;99.90;;;7.24;100.00;96861.84;5243060;28;20210;-67
2023/04/13 01:14:33;;;;;;;2.30;2.20;;;6.60;99.90;;;7.26;100.00;96879.72;5242771;28;20426;-66
2023/04/13 01:17:14;;;;;;;2.07;1.97;;;6.60;99.90;;;7.23;100.00;96875.34;5241523;28;20222;-64
2023/04/13 01:19:55;;;;;;;2.27;2.10;;;6.60;99.90;;;7.26;100.00;96872.09;5240601;28;20208;-66
2023/04/13 01:22:31;;;;;;;2.00;1.90;;;6.60;99.90;;;7.22;100.00;96865.97;5242586;28;20706;-65
2023/04/13 01:25:22;;;;;;;1.93;1.83;;;6.60;99.90;;;7.19;100.00;96864.13;5241136;28;20762;-66
2023/04/13 01:28:00;;;;;;;1.90;1.80;;;6.50;99.90;;;7.18;100.00;96861.50;5242025;28;20205;-66
2023/04/13 01:30:36;;;;;;;2.30;2.20;;;6.50;99.90;;;7.17;100.00;96858.09;5238962;28;20288;-67
2023/04/13 01:33:10;;;;;;;1.90;1.90;;;6.50;99.90;;;7.13;100.00;96851.13;5234645;28;20310;-65
2023/04/13 01:35:45;;;;;;;2.20;2.10;;;6.50;99.90;;;7.08;100.00;96837.28;5238455;28;20282;-66
2023/04/13 01:38:24;;;;;;;1.77;1.77;;;6.40;99.90;;;7.08;100.00;96839.81;5242034;28;20204;-67
2023/04/13 01:40:57;;;;;;;1.90;1.90;;;6.40;99.90;;;7.04;100.00;96831.94;5240004;28;20204;-65
2023/04/13 01:43:32;;;;;;;1.90;1.80;;;6.40;99.90;;;7.07;100.00;96822.84;5238754;28;20196;-66
2023/04/13 01:46:10;;;;;;;1.67;1.57;;;6.40;99.90;;;7.05;100.00;96818.47;5240307;28;20694;-65
2023/04/13 01:48:49;;;;;;;1.60;1.60;;;6.40;99.90;;;7.09;100.00;96820.38;5234249;28;20207;-65
2023/04/13 01:51:25;;;;;;;2.00;1.90;;;6.40;99.90;;;7.08;100.00;96819.50;5240411;28;20303;-65
2023/04/13 01:54:09;;;;;;;2.10;2.00;;;6.40;99.90;;;7.07;100.00;96817.75;5238840;28;20201;-65
2023/04/13 01:56:43;;;;;;;2.27;2.10;;;6.50;99.90;;;7.16;100.00;96810.63;5238845;28;20232;-64
2023/04/13 01:59:19;;;;;;;1.90;1.80;;;6.50;99.90;;;7.12;100.00;96816.31;5236464;28;20196;-65
2023/04/13 02:01:53;;;;;;;2.07;1.97;;;6.40;99.90;;;7.08;100.00;96816.94;5238023;28;20239;-65
2023/04/13 02:04:27;;;;;;;2.20;1.90;;;6.40;99.90;;;7.08;100.00;96816.94;5236152;28;20635;-66
2023/04/13 02:07:00;;;;;;;2.00;1.90;;;6.40;99.90;;;7.02;100.00;96809.00;5243216;28;20271;-65
2023/04/13 02:09:33;;;;;;;2.37;2.20;;;6.30;99.90;;;6.99;100.00;96806.31;5238419;28;20224;-64
2023/04/13 02:12:07;;;;;;;2.07;1.97;;;6.30;99.90;;;6.88;100.00;96815.00;5239459;28;20660;-65
2023/04/13 02:14:41;;;;;;;2.00;1.80;;;6.20;99.90;;;6.84;100.00;96824.13;5235407;28;20653;-64
2023/04/13 02:17:14;;;;;;;3.10;1.87;;;6.20;99.90;;;6.75;100.00;96829.59;5231548;28;20206;-65
2023/04/13 02:19:47;;;;;;;2.00;1.90;;;6.00;99.90;;;6.68;100.00;96830.03;5239726;28;20295;-65
2023/04/13 02:22:22;;;;;;;2.00;1.90;;;6.00;99.90;;;6.56;100.00;96831.03;5241236;28;20203;-65
2023/04/13 02:24:55;;;;;;;2.20;2.07;;;5.90;99.90;;;6.29;100.00;96837.16;5239129;28;20318;-65
2023/04/13 02:27:29;;;;;;;1.80;1.80;;;5.70;99.90;;;6.24;100.00;96838.59;5240958;28;20765;-65
2023/04/13 02:30:05;;;;;;;2.20;2.10;;;5.60;99.90;;;6.23;100.00;96841.88;5237716;28;20204;-65
2023/04/13 02:32:41;;;;;;;1.80;1.70;;;5.50;99.90;;;6.21;100.00;96846.03;5237815;28;20200;-64
2023/04/13 02:35:14;;;;;;;2.00;1.90;;;5.50;99.90;;;6.16;100.00;96846.53;5240704;28;20643;-64
2023/04/13 02:37:48;;;;;;;2.07;1.90;;;5.40;99.90;;;5.95;100.00;96843.63;5241807;28;20560;-64
2023/04/13 02:40:22;;;;;;;1.97;1.90;;;5.30;99.90;;;5.94;100.00;96836.81;5240433;28;20231;-64
2023/04/13 02:42:58;;;;;;;4.00;1.90;;;5.30;99.90;;;5.93;100.00;96840.13;5243560;28;20564;-65
2023/04/13 02:45:33;;;;;;;2.30;2.10;;;5.30;99.90;;;6.00;100.00;96839.69;5235546;28;20742;-66
2023/04/13 02:48:08;;;;;;;2.10;2.00;;;5.40;99.90;;;6.06;100.00;96837.50;5235328;28;20208;-65
2023/04/13 02:50:41;;;;;;;2.07;1.87;;;5.40;99.90;;;6.09;100.00;96840.22;5234491;28;20196;-66
2023/04/13 02:53:15;;;;;;;2.80;2.10;;;5.50;99.90;;;6.14;100.00;96846.44;5235037;28;20196;-63
2023/04/13 02:55:49;;;;;;;2.10;2.00;;;5.50;99.90;;;6.19;100.00;96845.03;5235919;28;20236;-65
2023/04/13 02:58:22;;;;;;;2.00;1.90;;;5.50;99.90;;;6.28;100.00;96849.78;5236143;28;20199;-66
2023/04/13 03:00:57;;;;;;;1.80;1.80;;;5.60;99.90;;;6.21;100.00;96851.09;5233979;28;20220;-65
2023/04/13 03:03:30;;;;;;;2.30;2.10;;;5.50;99.90;;;6.16;100.00;96855.03;5238068;28;20285;-66
2023/04/13 03:06:04;;;;;;;1.90;1.80;;;5.50;99.90;;;6.20;100.00;96845.91;5240226;28;20223;-65
2023/04/13 03:08:37;;;;;;;2.27;1.77;;;5.50;99.90;;;6.23;100.00;96846.97;5237853;28;21075;-65
2023/04/13 03:11:10;;;;;;;2.10;2.00;;;5.60;99.90;;;6.19;100.00;96854.31;5234452;28;20193;-66
2023/04/13 03:13:43;;;;;;;2.40;2.30;;;5.50;99.90;;;6.05;100.00;96861.13;5237541;28;20201;-66
2023/04/13 03:16:17;;;;;;;2.23;1.97;;;5.40;99.90;;;6.11;100.00;96851.34;5234935;28;20224;-66
2023/04/13 03:18:51;;;;;;;2.60;2.03;;;5.50;99.90;;;5.99;100.00;96848.97;5240752;28;20200;-66
2023/04/13 03:21:24;;;;;;;2.27;2.07;;;5.40;99.90;;;6.05;100.00;96848.44;5240869;28;20205;-67
2023/04/13 03:23:58;;;;;;;2.70;2.20;;;5.40;99.90;;;6.13;100.00;96848.91;5241104;28;20283;-67
2023/04/13 03:26:31;;;;;;;2.30;2.10;;;5.50;99.90;;;6.15;100.00;96840.56;5239313;28;20768;-66
2023/04/13 03:29:04;;;;;;;2.37;2.20;;;5.50;99.90;;;6.17;100.00;96849.16;5238345;28;20197;-65
2023/04/13 03:31:39;;;;;;;2.13;2.03;;;5.50;99.90;;;6.22;100.00;96850.28;5237626;28;20211;-67
2023/04/13 03:34:12;;;;;;;2.63;2.07;;;5.60;99.90;;;6.20;100.00;96851.88;5233654;28;20578;-66
2023/04/13 03:36:45;;;;;;;2.03;1.93;;;5.60;99.90;;;6.27;100.00;96851.44;5240570;28;20316;-66
2023/04/13 03:39:18;;;;;;;2.60;2.40;;;5.70;99.90;;;6.23;100.00;96857.09;5237041;28;20197;-66
2023/04/13 03:41:51;;;;;;;2.97;1.90;;;5.60;99.90;;;6.10;100.00;96862.28;5238944;28;20207;-66
2023/04/13 03:44:24;;;;;;;2.00;1.90;;;5.60;99.90;;;6.04;100.00;96859.41;5237846;28;20193;-66
2023/04/13 03:47:00;;;;;;;2.20;2.10;;;5.50;99.90;;;6.15;100.00;96852.38;5234255;28;20224;-65
2023/04/13 03:49:33;;;;;;;2.10;2.00;;;5.60;99.90;;;6.16;100.00;96852.50;5240522;28;20287;-64
2023/04/13 03:52:06;;;;;;;2.17;2.07;;;5.60;99.90;;;6.23;100.00;96858.78;5238101;28;20208;-65
2023/04/13 03:54:40;;;;;;;2.20;2.10;;;5.60;99.90;;;6.31;100.00;96875.31;5238566;28;20510;-66
2023/04/13 03:57:13;;;;;;;2.30;2.10;;;5.70;99.90;;;6.41;100.00;96866.56;5240236;28;20204;-66
2023/04/13 03:59:46;;;;;;;2.30;2.20;;;5.70;99.90;;;6.40;100.00;96868.22;5237981;28;20235;-66
2023/04/13 04:02:20;;;;;;;2.40;2.30;;;5.70;99.90;;;6.37;100.00;96859.56;5233447;28;20201;-66
2023/04/13 04:04:54;;;;;;;2.40;2.20;;;5.70;99.90;;;6.32;100.00;96870.34;5237481;28;20230;-66
2023/04/13 04:07:27;;;;;;;2.63;2.40;;;5.70;99.90;;;6.44;100.00;96877.78;5240258;28;20216;-65
2023/04/13 04:10:00;;;;;;;3.43;3.10;;;5.70;99.90;;;6.49;100.00;96883.09;5237648;28;20231;-63
2023/04/13 04:12:34;;;;;;;2.10;2.00;;;5.70;99.90;;;6.44;100.00;96882.84;5244924;28;20204;-66
2023/04/13 04:15:08;;;;;;;2.50;2.30;;;5.80;99.90;;;6.41;100.00;96882.69;5240298;28;20247;-66
2023/04/13 04:17:43;;;;;;;2.50;2.30;;;5.80;99.90;;;6.35;100.00;96887.38;5239973;28;20196;-66
2023/04/13 04:20:16;;;;;;;2.67;1.80;;;5.70;99.90;;;6.24;100.00;96883.38;5243135;28;20281;-66
2023/04/13 04:22:51;;;;;;;2.03;1.93;;;5.60;99.90;;;6.17;100.00;96882.13;5237217;28;20215;-65
2023/04/13 04:25:26;;;;;;;2.33;2.17;;;5.50;99.90;;;6.14;100.00;96879.41;5238989;28;20277;-66
2023/04/13 04:28:01;;;;;;;2.13;1.93;;;5.50;99.90;;;5.98;100.00;96884.38;5242336;28;20224;-67
2023/04/13 04:30:34;;;;;;;2.30;2.13;;;5.40;99.90;;;5.87;100.00;96881.19;5235859;28;20283;-67
2023/04/13 04:33:09;;;;;;;2.37;2.20;;;5.30;99.90;;;5.94;100.00;96892.59;5235040;28;20297;-66
2023/04/13 04:35:48;;;;;;;3.63;2.43;;;5.30;99.90;;;5.82;100.00;96883.44;5242548;28;20650;-66
2023/04/13 04:38:22;;;;;;;2.53;2.30;;;5.20;99.90;;;5.84;100.00;96896.22;5241893;28;20277;-67
2023/04/13 04:40:56;;;;;;;1.83;1.73;;;5.20;99.90;;;5.87;100.00;96892.22;5241400;28;20204;-67
2023/04/13 04:43:29;;;;;;;3.10;2.43;;;5.20;99.90;;;5.92;100.00;96895.00;5244149;28;20231;-65
2023/04/13 04:46:03;;;;;;;2.70;2.50;;;5.20;99.90;;;5.95;100.00;96896.88;5237823;28;20672;-66
2023/04/13 04:48:38;;;;;;;2.07;1.90;;;5.30;99.90;;;5.93;100.00;96898.44;5241600;28;20315;-66
2023/04/13 04:51:12;;;;;;;2.53;2.33;;;5.20;99.90;;;5.98;100.00;96892.88;5242721;28;20329;-66
2023/04/13 04:53:45;;;;;;;2.77;2.60;;;5.30;99.90;;;6.06;100.00;96900.91;5240852;28;20291;-66
2023/04/13 04:56:18;;;;;;;2.13;2.03;;;5.40;99.90;;;6.12;100.00;96908.88;5241816;28;20216;-66
2023/04/13 04:58:51;;;;;;;3.63;3.30;;;5.40;99.90;;;6.13;100.00;96909.78;5241580;28;20201;-66
2023/04/13 05:01:25;;;;;;;3.57;3.37;;;5.50;99.90;;;6.17;100.00;96911.69;5238989;28;20207;-68
2023/04/13 05:04:01;;;;;;;4.20;3.80;;;5.50;99.90;;;6.21;100.00;96904.38;5241463;28;20672;-66
2023/04/13 05:06:34;;;;;;;3.73;3.50;;;5.50;99.90;;;6.23;100.00;96907.84;5242230;28;20220;-64
2023/04/13 05:09:08;;;;;;;3.43;3.13;;;5.50;99.90;;;6.29;100.00;96892.09;5237890;28;20219;-66
2023/04/13 05:11:41;;;;;;;5.00;3.50;;;5.60;99.90;;;6.39;100.00;96888.47;5243816;28;20231;-67
2023/04/13 05:14:14;;;;;;;4.17;2.90;;;5.70;99.90;;;6.49;100.00;96888.16;5239956;28;20209;-66
2023/04/13 05:16:48;;;;;;;2.80;2.60;;;5.70;99.90;;;6.66;97.02;96896.75;5232068;28;20549;-67
2023/04/13 05:19:23;;;;;;;3.10;2.83;;;5.80;99.90;;;6.69;95.83;96890.16;5241990;28;20243;-67
2023/04/13 05:21:56;;;;;;;2.93;2.73;;;5.90;99.90;;;6.80;92.94;96892.44;5240512;28;20263;-67
2023/04/13 05:24:29;;;;;;;2.87;2.67;;;6.10;99.90;;;7.02;89.27;96891.97;5242595;28;20227;-66
2023/04/13 05:27:03;;;;;;;3.33;2.40;;;6.30;99.90;;;6.96;90.68;96889.97;5240673;28;20259;-66
2023/04/13 05:29:36;;;;;;;3.73;2.60;;;6.30;99.90;;;7.12;89.66;96897.63;5239020;28;20314;-67
2023/04/13 05:32:09;;;;;;;2.60;2.40;;;6.30;99.90;;;7.17;88.49;96893.66;5239871;28;20660;-67
2023/04/13 05:34:43;;;;;;;4.20;2.20;;;6.40;99.90;;;7.36;86.16;96907.38;5241081;28;20209;-67
2023/04/13 05:37:16;;;;;;;2.80;2.37;;;6.60;99.90;;;7.25;86.13;96900.84;5241256;28;20199;-67
2023/04/13 05:39:50;;;;;;;2.37;2.13;;;6.60;99.90;;;7.42;84.68;96908.56;5240301;28;20326;-67
2023/04/13 05:42:24;;;;;;;4.93;2.50;;;6.70;99.90;;;7.41;83.78;96911.94;5242572;28;20631;-66
2023/04/13 05:44:57;;;;;;;3.27;2.40;;;6.80;99.90;;;7.46;82.70;96914.69;5236549;28;20320;-65
2023/04/13 05:47:30;;;;;;;6.33;2.70;;;6.90;99.90;;;7.40;82.69;96919.44;5238533;28;20222;-66
2023/04/13 05:50:06;;;;;;;4.40;2.70;;;6.80;99.90;;;7.60;81.30;96912.88;5240163;28;20705;-67
2023/04/13 05:52:39;;;;;;;3.17;2.27;;;7.00;99.90;;;7.72;80.87;96917.75;5241943;28;20208;-66
2023/04/13 05:55:12;;;;;;;5.23;2.53;;;7.00;99.90;;;7.71;81.22;96918.56;5238550;28;20235;-67
2023/04/13 05:57:45;;;;;;;6.03;2.60;;;7.00;99.90;;;7.74;78.85;96921.25;5238814;28;20205;-66
2023/04/13 06:00:20;;;;;;;2.57;2.17;;;7.10;99.90;;;7.83;78.84;96924.28;5236699;28;20213;-67
2023/04/13 06:02:54;;;;;;;4.23;2.57;;;7.10;99.90;;;7.82;77.67;96920.00;5238982;28;20337;-67
2023/04/13 06:05:31;;;;;;;4.33;2.70;;;7.30;99.90;;;7.82;79.33;96920.00;5233126;28;20220;-69
2023/04/13 06:08:05;;;;;;;2.53;2.33;;;7.30;99.90;;;7.84;78.19;96923.47;5234398;28;20200;-67
2023/04/13 06:10:38;;;;;;;12.77;7.13;;;7.30;99.90;;;7.94;78.89;96928.25;5233522;28;20201;-66
2023/04/13 06:13:11;;;;;;;4.53;2.80;;;7.30;99.90;;;7.90;77.66;96928.91;5239981;28;20292;-65
2023/04/13 06:15:44;;;;;;;3.80;3.10;;;7.30;99.90;;;7.94;77.37;96930.78;5234242;28;20248;-66
2023/04/13 06:18:17;;;;;;;4.30;1.97;;;7.30;99.90;;;7.95;78.36;96931.66;5237027;28;20193;-65
2023/04/13 06:20:51;;;;;;;4.63;3.90;;;7.30;99.90;;;7.97;78.47;96935.16;5236919;28;20200;-67
2023/04/13 06:23:25;;;;;;;4.47;3.57;;;7.20;99.90;;;7.88;79.59;96925.41;5234700;28;20196;-66
2023/04/13 06:25:58;;;;;;;3.87;3.10;;;7.10;99.90;;;8.03;78.44;96926.16;5240112;28;20221;-66
2023/04/13 06:28:32;;;;;;;7.33;2.70;;;7.20;99.90;;;8.02;78.23;96924.44;5237966;28;20719;-66
2023/04/13 06:31:06;;;;;;;6.17;5.60;;;7.20;99.90;;;8.19;76.26;96916.81;5235152;28;20220;-67
2023/04/13 06:33:39;;;;;;;4.80;2.70;;;7.40;99.90;;;8.25;76.65;96927.28;5228178;28;20279;-67
2023/04/13 06:36:13;;;;;;;5.23;2.53;;;7.40;99.90;;;8.24;76.44;96918.78;5238422;28;20221;-65
2023/04/13 06:38:46;;;;;;;3.93;2.30;;;7.40;99.90;;;8.28;75.06;96924.91;5235581;28;20322;-65
2023/04/13 06:41:19;;;;;;;3.93;2.63;;;7.50;99.90;;;8.45;74.16;96919.00;5239948;28;20204;-66
2023/04/13 06:43:52;;;;;;;3.03;2.70;;;7.60;99.90;;;8.48;74.54;96920.84;5238662;28;20201;-65
2023/04/13 06:46:26;;;;;;;3.90;2.90;;;7.60;99.90;;;8.52;74.17;96923.59;5231421;28;20216;-65
2023/04/13 06:48:59;;;;;;;4.93;2.60;;;7.70;99.90;;;8.53;74.62;96940.63;5234677;28;20226;-66
2023/04/13 06:51:34;;;;;;;5.20;3.30;;;7.70;99.90;;;8.53;73.10;96929.59;5239633;28;20224;-66
2023/04/13 06:54:07;;;;;;;3.83;2.60;;;7.70;99.90;;;8.46;73.64;96932.59;5235097;28;20208;-66
2023/04/13 06:56:40;;;;;;;3.83;2.33;;;7.60;99.90;;;8.51;73.65;96936.25;5235758;28;20231;-66
2023/04/13 06:59:13;;;;;;;6.10;5.33;;;7.70;99.90;;;8.56;71.99;96925.50;5238206;28;20288;-65
2023/04/13 07:01:46;;;;;;;2.97;2.63;;;7.70;99.90;;;8.50;73.90;96925.22;5236838;28;20247;-67
2023/04/13 07:04:20;;;;;;;3.83;2.90;;;7.70;99.90;;;8.38;75.47;96931.31;5237972;28;20617;-67
2023/04/13 07:06:54;;;;;;;4.97;2.50;;;7.60;99.90;;;8.60;74.07;96930.75;5234335;28;20223;-67
2023/04/13 07:09:27;;;;;;;3.17;2.20;;;7.70;99.90;;;8.68;73.58;96935.41;5242632;28;20788;-67
2023/04/13 07:12:03;;;;;;;3.93;2.83;;;7.80;99.90;;;8.63;73.18;96936.88;5232006;28;20648;-64
2023/04/13 07:14:39;;;;;;;3.73;2.87;;;7.80;99.90;;;8.75;73.72;96937.47;5236134;28;20203;-64
2023/04/13 07:17:12;;;;;;;3.97;2.80;;;7.80;99.90;;;8.73;72.90;96948.41;5236606;28;20192;-65
2023/04/13 07:19:48;;;;;;;2.50;2.20;;;7.90;99.90;;;8.68;71.81;96932.88;5239099;28;20238;-67
2023/04/13 07:22:23;;;;;;;6.00;2.80;;;7.80;99.90;;;8.73;70.17;96935.66;5238913;28;20245;-67
2023/04/13 07:24:56;;;;;;;21.07;13.73;;;7.80;99.90;;;8.75;71.71;96941.69;5228751;28;20223;-66
2023/04/13 07:27:29;;;;;;;2.80;2.60;;;7.90;99.90;;;8.79;70.37;96935.97;5236478;28;20201;-66
2023/04/13 07:30:02;;;;;;;5.70;2.33;;;8.00;99.90;;;8.75;71.79;96946.78;5232634;28;20228;-66
2023/04/13 07:32:35;;;;;;;2.93;2.37;;;8.00;99.90;;;8.80;71.27;96941.09;5233148;28;20197;-67
2023/04/13 07:35:09;;;;;;;3.63;2.60;;;8.00;99.90;;;8.84;69.47;96942.13;5244767;28;20265;-66
2023/04/13 07:37:45;;;;;;;4.23;2.10;;;8.10;99.90;;;8.91;68.61;96950.97;5240709;28;20584;-65
2023/04/13 07:40:18;;;;;;;4.63;2.70;;;8.10;99.90;;;8.90;69.25;96952.66;5230910;28;20598;-64
2023/04/13 07:42:51;;;;;;;2.50;2.30;;;8.10;99.90;;;8.96;68.48;96952.94;5236387;28;20576;-67
2023/04/13 07:45:24;;;;;;;2.47;2.20;;;8.10;99.90;;;9.01;69.91;96960.78;5236911;28;20247;-65
2023/04/13 07:47:57;;;;;;;4.23;2.30;;;8.10;99.90;;;9.05;67.50;96956.72;5243515;28;20236;-65
2023/04/13 07:50:30;;;;;;;2.97;2.23;;;8.30;99.90;;;8.98;68.40;96958.97;5240175;28;20315;-66
2023/04/13 07:53:05;;;;;;;4.33;2.50;;;8.20;99.90;;;9.05;68.66;96964.38;5240213;28;20299;-67
2023/04/13 07:55:38;;;;;;;5.67;2.37;;;8.20;99.90;;;9.03;69.44;96961.75;5238491;28;20230;-67
2023/04/13 07:58:11;;;;;;;3.13;2.63;;;8.20;99.90;;;9.15;67.54;96944.47;5244057;28;20270;-65
2023/04/13 08:00:44;;;;;;;5.03;2.40;;;8.30;99.90;;;9.28;66.90;96945.94;5240622;28;20204;-66
2023/04/13 08:03:17;;;;;;;3.43;2.40;;;8.60;99.90;;;9.28;66.61;96945.94;5240947;28;20575;-67
2023/04/13 08:05:50;;;;;;;2.73;2.40;;;8.60;99.90;;;9.34;68.07;96946.22;5244386;28;20248;-67
2023/04/13 08:08:25;;;;;;;4.30;2.50;;;8.50;99.90;;;9.40;66.39;96953.28;5233920;28;20204;-65
2023/04/13 08:10:58;;;;;;;3.20;2.17;;;8.60;99.90;;;9.59;66.61;96949.94;5236043;28;20227;-66
2023/04/13 08:13:32;;;;;;;5.23;2.73;;;8.60;99.90;;;9.60;68.32;96959.31;5243832;28;20193;-67
2023/04/13 08:16:07;;;;;;;2.50;2.30;;;8.70;99.90;;;9.59;66.43;96958.44;5240784;28;20694;-67
2023/04/13 08:18:41;;;;;;;4.57;2.53;;;8.80;99.90;;;9.55;65.56;96963.31;5239048;28;20295;-65
2023/04/13 08:21:14;;;;;;;2.60;2.13;;;9.00;99.90;;;9.61;66.08;96959.38;5243976;28;20326;-67
2023/04/13 08:23:49;;;;;;;4.33;2.40;;;9.00;99.90;;;9.70;64.85;96956.41;5242965;28;21060;-66
2023/04/13 08:26:23;;;;;;;2.93;2.27;;;9.00;99.90;;;9.59;65.56;96955.03;5241572;28;20314;-66
2023/04/13 08:28:56;;;;;;;2.77;2.57;;;8.90;99.90;;;9.84;65.20;96955.34;5246814;28;20207;-66
2023/04/13 08:31:31;;;;;;;4.10;2.27;;;9.10;99.90;;;9.84;66.21;96960.44;5250815;28;20574;-66
2023/04/13 08:34:04;;;;;;;4.43;2.47;;;9.10;99.90;;;10.17;66.55;96965.28;5248894;28;20204;-66
2023/04/13 08:36:37;;;;;;;4.67;2.47;;;9.40;99.90;;;10.41;64.51;96962.09;5241114;28;20263;-66
2023/04/13 08:39:12;;;;;;;4.27;2.40;;;9.70;99.90;;;10.48;62.88;96959.00;5238467;28;20201;-66
2023/04/13 08:41:47;;;;;;;4.40;2.60;;;9.80;99.90;;;10.56;61.45;96970.44;5239417;28;20322;-67
2023/04/13 08:44:20;;;;;;;2.70;2.37;;;10.00;99.90;;;10.67;64.36;96971.72;5241158;28;20204;-66
2023/04/13 08:46:53;;;;;;;4.57;2.58;;;9.80;99.90;;;10.71;63.29;96967.63;5243056;28;20712;-66
2023/04/13 08:49:28;;;;;;;4.43;2.50;;;9.90;99.90;;;10.76;62.16;96964.47;5238133;28;20211;-65
2023/04/13 08:52:05;;;;;;;3.88;2.20;;;9.90;99.90;;;10.78;61.46;96973.06;5240875;28;20648;-66
2023/04/13 08:54:39;;;;;;;3.92;2.53;;;9.90;99.90;;;10.82;63.69;96980.06;5246072;28;20288;-65
2023/04/13 08:57:15;;;;;;;3.15;2.22;;;9.90;99.90;;;10.94;62.54;96969.47;5239540;28;20718;-65
2023/04/13 08:59:51;;;;;;;2.70;2.25;;;9.90;99.90;;;10.97;60.24;96973.81;5240045;28;20200;-66
2023/04/13 09:02:31;;;;;;;3.50;2.53;;;10.10;99.90;;;10.79;60.30;96968.84;5249164;28;20591;-67
2023/04/13 09:05:14;;;;;;;5.03;2.53;;;9.90;99.90;;;10.78;59.82;96962.81;5241205;28;20225;-64
2023/04/13 09:07:52;;;;;;;3.60;2.05;;;9.90;99.90;;;10.88;60.32;96968.34;5243095;28;20208;-66
2023/04/13 09:10:27;;;;;;;3.67;2.17;;;10.00;99.90;;;10.93;57.55;96971.94;5238593;28;20277;-66
2023/04/13 09:13:00;;;;;;;3.92;2.45;;;10.00;99.90;;;10.78;59.52;96967.94;5243157;28;20196;-66
2023/04/13 09:15:34;;;;;;;4.50;2.35;;;9.90;99.90;;;10.86;60.25;96972.50;5240978;28;20216;-66
2023/04/13 09:18:08;;;;;;;4.25;2.47;;;9.90;99.90;;;10.92;57.49;96954.88;5237924;28;20201;-66
2023/04/13 09:20:41;;;;;;;6.43;2.60;;;10.00;99.90;;;10.88;59.46;96964.09;5244825;28;20227;-66
2023/04/13 09:23:16;;;;;;;6.20;2.88;;;9.90;99.90;;;10.89;60.85;96958.16;5238278;28;20287;-65
2023/04/13 09:26:05;;;;;;;5.82;2.40;;;10.00;99.90;;;11.03;59.27;96948.50;5238088;28;20315;-66
2023/04/13 09:28:46;;;;;;;3.33;2.13;;;10.20;99.90;;;11.17;58.61;96951.63;5239945;28;20242;-66
2023/04/13 09:31:19;;;;;;;2.90;2.30;;;10.20;99.90;;;11.15;58.98;96961.78;5238647;28;20602;-66
2023/04/13 09:33:53;;;;;;;4.38;2.50;;;10.20;99.90;;;11.29;58.86;96967.44;5236066;28;20196;-66
2023/04/13 09:36:28;;;;;;;4.28;2.65;;;10.30;99.90;;;11.16;61.13;96976.31;5240608;28;20284;-67
2023/04/13 09:39:16;;;;;;;6.05;2.35;;;10.10;99.90;;;11.04;65.79;96975.81;5230416;28;20572;-66
2023/04/13 09:41:51;;;;;;;4.43;2.53;;;10.00;99.90;;;10.86;65.72;96985.28;5233829;28;20231;-66
2023/04/13 09:44:26;;;;;;;4.15;2.15;;;9.70;99.90;;;10.60;70.39;97001.25;5241367;28;20295;-65
2023/04/13 09:47:02;;;;;;;5.80;3.10;;;9.80;99.90;;;10.10;77.43;97006.66;5247570;28;20596;-66
2023/04/13 09:49:38;;;;;;;5.67;2.70;;;9.50;99.90;;;9.83;80.38;97006.31;5247860;28;20218;-66
2023/04/13 09:52:20;;;;;;;2.67;2.40;;;9.00;99.90;;;9.74;82.62;96993.13;5237751;28;20212;-66
2023/04/13 09:54:56;;;;;;;5.50;2.70;;;8.80;99.90;;;9.76;82.17;96969.44;5232298;28;20582;-67
2023/04/13 09:57:32;;;;;;;5.70;2.57;;;8.80;99.90;;;9.58;81.66;96972.00;5242164;28;20201;-66
2023/04/13 10:00:13;;;;;;;5.13;2.57;;;8.70;99.90;;;9.70;82.10;96956.41;5251541;28;20290;-66
2023/04/13 10:02:50;;;;;;;4.47;2.70;;;8.90;99.90;;;9.86;80.60;96963.91;5250407;28;20235;-66
2023/04/13 10:05:25;;;;;;;7.37;2.53;;;8.90;99.90;;;10.05;81.57;96957.09;5246817;28;20226;-66
2023/04/13 10:08:01;;;;;;;5.00;2.30;;;9.10;99.90;;;10.22;80.39;96958.72;5246212;28;20231;-66
2023/04/13 10:10:35;;;;;;;4.13;1.90;;;9.40;99.90;;;10.68;74.56;96949.63;5248418;28;20765;-67
2023/04/13 10:13:17;;;;;;;2.90;2.40;;;9.90;99.90;;;10.69;75.76;96939.44;5244983;28;20319;-66
2023/04/13 10:16:15;;;;;;;5.68;2.78;;;10.00;99.90;;;11.06;74.34;96930.72;5241738;28;20248;-67
2023/04/13 10:19:00;;;;;;;2.70;2.05;;;10.30;99.90;;;11.18;68.84;96932.88;5240234;28;20295;-66
2023/04/13 10:21:39;;;;;;;4.78;2.45;;;10.40;99.90;;;11.43;71.31;96938.16;5243060;28;20219;-67
2023/04/13 10:24:13;;;;;;;4.53;2.50;;;10.60;99.90;;;11.80;72.89;96942.13;5240412;28;20196;-67
2023/04/13 10:26:46;;;;;;;2.70;2.25;;;11.00;99.90;;;12.07;69.33;96937.16;5242467;28;21000;-67
2023/04/13 10:29:29;;;;;;;2.78;2.33;;;11.40;99.90;;;12.35;67.39;96943.25;5245610;28;20203;-66
2023/04/13 10:32:03;;;;;;;2.75;1.88;;;11.70;99.90;;;12.56;65.54;96933.78;5244500;28;20224;-66
2023/04/13 10:34:38;;;;;;;2.75;2.00;;;12.00;99.90;;;12.70;65.41;96933.34;5244571;28;20617;-66
2023/04/13 10:37:18;;;;;;;2.42;1.70;;;12.10;99.90;;;12.79;62.40;96928.53;5251687;28;20199;-67
2023/04/13 10:40:05;;;;;;;2.28;1.80;;;11.90;99.90;;;12.78;59.12;96926.78;5250432;28;20200;-66
2023/04/13 10:42:43;;;;;;;5.07;2.00;;;11.90;99.90;;;12.67;60.90;96925.56;5243486;28;20246;-65
2023/04/13 10:45:23;;;;;;;3.63;2.10;;;11.70;99.90;;;12.73;60.05;96920.63;5243225;28;20220;-66
2023/04/13 10:47:57;;;;;;;3.38;2.17;;;11.60;99.90;;;12.88;59.05;96921.16;5244432;28;20200;-67
2023/04/13 10:50:30;;;;;;;2.75;2.03;;;11.60;99.90;;;12.81;57.98;96921.75;5254849;28;20233;-66
2023/04/13 10:53:05;;;;;;;2.55;1.88;;;11.80;99.90;;;12.84;58.75;96917.59;5243658;28;20240;-67
2023/04/13 10:55:38;;;;;;;3.80;2.20;;;11.70;99.90;;;12.78;58.21;96922.53;5243829;28;20698;-67
2023/04/13 10:58:16;;;;;;;3.10;2.10;;;11.70;99.90;;;12.89;56.65;96928.03;5244081;28;20216;-64
2023/04/13 11:00:51;;;;;;;5.20;1.95;;;11.90;99.90;;;12.87;58.11;96921.97;5244639;28;20222;-67